sensor_id;sensor_type;location;lat;lon;timestamp;pressure;altitude;pressure_sealevel;temperature;humidity
36062;BME280;22123;52.412;20.970;2022-11-15T00:00:01;101144.81;;;5.11;100.00
36062;BME280;22123;52.412;20.970;2022-11-15T00:02:26;101143.22;;;5.08;100.00
36062;BME280;22123;52.412;20.970;2022-11-15T00:04:51;101152.47;;;5.04;100.00
36062;BME280;22123;52.412;20.970;2022-11-15T00:07:17;101142.88;;;5.01;100.00
36062;BME280;22123;52.412;20.970;2022-11-15T00:09:42;101145.66;;;5.00;100.00
36062;BME280;22123;52.412;20.970;2022-11-15T00:12:07;101142.25;;;4.98;100.00
36062;BME280;22123;52.412;20.970;2022-11-15T00:14:32;101137.16;;;4.95;100.00
36062;BME280;22123;52.412;20.970;2022-11-15T00:16:57;101138.22;;;4.92;100.00
36062;BME280;22123;52.412;20.970;2022-11-15T00:19:23;101133.25;;;4.87;100.00
36062;BME280;22123;52.412;20.970;2022-11-15T00:21:48;101118.19;;;4.86;100.00
36062;BME280;22123;52.412;20.970;2022-11-15T00:24:13;101113.00;;;4.85;100.00
36062;BME280;22123;52.412;20.970;2022-11-15T00:26:38;101108.53;;;4.85;100.00
36062;BME280;22123;52.412;20.970;2022-11-15T00:29:04;101112.03;;;4.86;100.00
36062;BME280;22123;52.412;20.970;2022-11-15T00:31:29;101107.66;;;4.85;100.00
36062;BME280;22123;52.412;20.970;2022-11-15T00:33:54;101109.34;;;4.86;100.00
36062;BME280;22123;52.412;20.970;2022-11-15T00:36:19;101108.53;;;4.85;100.00
36062;BME280;22123;52.412;20.970;2022-11-15T00:38:45;101103.31;;;4.84;100.00
36062;BME280;22123;52.412;20.970;2022-11-15T00:41:10;101100.75;;;4.82;100.00
36062;BME280;22123;52.412;20.970;2022-11-15T00:43:35;101094.44;;;4.83;100.00
36062;BME280;22123;52.412;20.970;2022-11-15T00:46:01;101098.09;;;4.82;100.00
36062;BME280;22123;52.412;20.970;2022-11-15T00:48:27;101085.47;;;4.84;100.00
36062;BME280;22123;52.412;20.970;2022-11-15T00:50:53;101080.00;;;4.86;100.00
36062;BME280;22123;52.412;20.970;2022-11-15T00:53:18;101074.81;;;4.84;100.00
36062;BME280;22123;52.412;20.970;2022-11-15T00:55:43;101076.88;;;4.81;100.00
36062;BME280;22123;52.412;20.970;2022-11-15T00:58:08;101075.28;;;4.78;100.00
36062;BME280;22123;52.412;20.970;2022-11-15T01:00:34;101067.53;;;4.75;100.00
36062;BME280;22123;52.412;20.970;2022-11-15T01:03:00;101064.97;;;4.74;100.00
36062;BME280;22123;52.412;20.970;2022-11-15T01:05:25;101068.38;;;4.76;100.00
36062;BME280;22123;52.412;20.970;2022-11-15T01:07:51;101054.91;;;4.77;100.00
36062;BME280;22123;52.412;20.970;2022-11-15T01:10:16;101055.63;;;4.79;100.00
36062;BME280;22123;52.412;20.970;2022-11-15T01:12:42;101053.69;;;4.81;100.00
36062;BME280;22123;52.412;20.970;2022-11-15T01:15:07;101052.88;;;4.81;100.00
36062;BME280;22123;52.412;20.970;2022-11-15T01:17:32;101040.38;;;4.81;100.00
36062;BME280;22123;52.412;20.970;2022-11-15T01:19:57;101047.41;;;4.82;100.00
36062;BME280;22123;52.412;20.970;2022-11-15T01:22:23;101027.16;;;4.80;100.00
36062;BME280;22123;52.412;20.970;2022-11-15T01:24:51;101035.88;;;4.82;100.00
36062;BME280;22123;52.412;20.970;2022-11-15T01:27:16;101030.66;;;4.80;100.00
36062;BME280;22123;52.412;20.970;2022-11-15T01:29:42;101023.72;;;4.78;100.00
36062;BME280;22123;52.412;20.970;2022-11-15T01:32:07;101018.28;;;4.79;100.00
36062;BME280;22123;52.412;20.970;2022-11-15T01:34:32;101020.94;;;4.79;100.00
36062;BME280;22123;52.412;20.970;2022-11-15T01:36:58;101019.16;;;4.80;100.00
36062;BME280;22123;52.412;20.970;2022-11-15T01:39:23;101028.94;;;4.79;100.00
36062;BME280;22123;52.412;20.970;2022-11-15T01:41:49;101023.72;;;4.78;100.00
36062;BME280;22123;52.412;20.970;2022-11-15T01:46:59;101008.47;;;4.80;100.00
36062;BME280;22123;52.412;20.970;2022-11-15T01:49:26;100995.97;;;4.80;100.00
36062;BME280;22123;52.412;20.970;2022-11-15T01:51:55;101004.84;;;4.81;100.00
36062;BME280;22123;52.412;20.970;2022-11-15T01:54:21;101001.06;;;4.83;100.00
36062;BME280;22123;52.412;20.970;2022-11-15T01:56:52;100997.44;;;4.84;100.00
36062;BME280;22123;52.412;20.970;2022-11-15T01:59:18;100992.34;;;4.81;100.00
36062;BME280;22123;52.412;20.970;2022-11-15T02:01:44;101002.41;;;4.78;100.00
36062;BME280;22123;52.412;20.970;2022-11-15T02:04:16;100992.72;;;4.77;100.00
36062;BME280;22123;52.412;20.970;2022-11-15T02:06:42;100991.13;;;4.74;100.00
36062;BME280;22123;52.412;20.970;2022-11-15T02:09:08;100984.84;;;4.75;100.00
36062;BME280;22123;52.412;20.970;2022-11-15T02:11:34;100983.00;;;4.76;100.00
36062;BME280;22123;52.412;20.970;2022-11-15T02:13:59;100977.53;;;4.77;100.00
36062;BME280;22123;52.412;20.970;2022-11-15T02:19:03;100975.38;;;4.82;100.00
36062;BME280;22123;52.412;20.970;2022-11-15T02:21:36;100969.03;;;4.83;100.00
36062;BME280;22123;52.412;20.970;2022-11-15T02:28:59;100961.78;;;4.85;100.00
36062;BME280;22123;52.412;20.970;2022-11-15T02:36:31;100955.00;;;4.81;100.00
36062;BME280;22123;52.412;20.970;2022-11-15T02:39:01;100955.72;;;4.83;100.00
36062;BME280;22123;52.412;20.970;2022-11-15T02:41:48;100955.97;;;4.80;100.00
36062;BME280;22123;52.412;20.970;2022-11-15T02:44:26;100945.28;;;4.80;100.00
36062;BME280;22123;52.412;20.970;2022-11-15T02:46:59;100948.91;;;4.79;100.00
36062;BME280;22123;52.412;20.970;2022-11-15T02:49:45;100942.88;;;4.77;100.00
36062;BME280;22123;52.412;20.970;2022-11-15T02:52:14;100937.41;;;4.79;100.00
36062;BME280;22123;52.412;20.970;2022-11-15T02:54:39;100947.13;;;4.80;100.00
36062;BME280;22123;52.412;20.970;2022-11-15T02:57:15;100938.16;;;4.81;100.00
36062;BME280;22123;52.412;20.970;2022-11-15T02:59:43;100930.16;;;4.81;100.00
36062;BME280;22123;52.412;20.970;2022-11-15T03:07:35;100927.56;;;4.79;100.00
36062;BME280;22123;52.412;20.970;2022-11-15T03:10:18;100925.78;;;4.80;100.00
36062;BME280;22123;52.412;20.970;2022-11-15T03:12:51;100917.91;;;4.78;100.00
36062;BME280;22123;52.412;20.970;2022-11-15T03:15:23;100914.38;;;4.78;100.00
36062;BME280;22123;52.412;20.970;2022-11-15T03:17:54;100916.91;;;4.79;100.00
36062;BME280;22123;52.412;20.970;2022-11-15T03:20:20;100910.59;;;4.80;100.00
36062;BME280;22123;52.412;20.970;2022-11-15T03:22:46;100904.44;;;4.80;100.00
36062;BME280;22123;52.412;20.970;2022-11-15T03:25:13;100893.88;;;4.78;100.00
36062;BME280;22123;52.412;20.970;2022-11-15T03:27:41;100892.19;;;4.77;100.00
36062;BME280;22123;52.412;20.970;2022-11-15T03:30:08;100889.66;;;4.76;100.00
36062;BME280;22123;52.412;20.970;2022-11-15T03:32:38;100889.91;;;4.73;100.00
36062;BME280;22123;52.412;20.970;2022-11-15T03:35:05;100892.56;;;4.73;100.00
36062;BME280;22123;52.412;20.970;2022-11-15T03:37:36;100890.47;;;4.76;100.00
36062;BME280;22123;52.412;20.970;2022-11-15T03:40:03;100891.09;;;4.80;100.00
36062;BME280;22123;52.412;20.970;2022-11-15T03:45:14;100883.81;;;4.82;100.00
36062;BME280;22123;52.412;20.970;2022-11-15T03:47:42;100874.00;;;4.82;100.00
36062;BME280;22123;52.412;20.970;2022-11-15T03:50:11;100875.69;;;4.83;100.00
36062;BME280;22123;52.412;20.970;2022-11-15T03:52:38;100869.63;;;4.81;100.00
36062;BME280;22123;52.412;20.970;2022-11-15T03:55:05;100866.00;;;4.82;100.00
36062;BME280;22123;52.412;20.970;2022-11-15T03:57:31;100862.22;;;4.85;100.00
36062;BME280;22123;52.412;20.970;2022-11-15T03:59:56;100859.66;;;4.83;100.00
36062;BME280;22123;52.412;20.970;2022-11-15T04:02:21;100865.13;;;4.82;100.00
36062;BME280;22123;52.412;20.970;2022-11-15T04:04:47;100859.09;;;4.80;100.00
36062;BME280;22123;52.412;20.970;2022-11-15T04:07:12;100855.56;;;4.79;100.00
36062;BME280;22123;52.412;20.970;2022-11-15T04:09:37;100855.69;;;4.78;100.00
36062;BME280;22123;52.412;20.970;2022-11-15T04:12:23;100850.34;;;4.78;100.00
36062;BME280;22123;52.412;20.970;2022-11-15T04:14:56;100848.81;;;4.75;100.00
36062;BME280;22123;52.412;20.970;2022-11-15T04:17:38;100850.72;;;4.73;100.00
36062;BME280;22123;52.412;20.970;2022-11-15T04:20:04;100848.81;;;4.75;100.00
36062;BME280;22123;52.412;20.970;2022-11-15T04:22:48;100852.31;;;4.76;100.00
36062;BME280;22123;52.412;20.970;2022-11-15T04:25:33;100845.13;;;4.76;100.00
36062;BME280;22123;52.412;20.970;2022-11-15T04:27:58;100847.69;;;4.78;100.00
36062;BME280;22123;52.412;20.970;2022-11-15T04:30:23;100849.50;;;4.77;100.00
36062;BME280;22123;52.412;20.970;2022-11-15T04:32:49;100850.47;;;4.76;100.00
36062;BME280;22123;52.412;20.970;2022-11-15T04:35:14;100844.44;;;4.74;100.00
36062;BME280;22123;52.412;20.970;2022-11-15T04:37:39;100844.56;;;4.73;100.00
36062;BME280;22123;52.412;20.970;2022-11-15T04:40:05;100833.88;;;4.73;100.00
36062;BME280;22123;52.412;20.970;2022-11-15T04:42:30;100830.34;;;4.72;100.00
36062;BME280;22123;52.412;20.970;2022-11-15T04:44:55;100826.72;;;4.73;100.00
36062;BME280;22123;52.412;20.970;2022-11-15T04:47:21;100830.13;;;4.75;100.00
36062;BME280;22123;52.412;20.970;2022-11-15T04:49:46;100830.97;;;4.76;100.00
36062;BME280;22123;52.412;20.970;2022-11-15T04:52:11;100836.28;;;4.76;100.00
36062;BME280;22123;52.412;20.970;2022-11-15T04:54:37;100826.72;;;4.73;100.00
36062;BME280;22123;52.412;20.970;2022-11-15T04:57:02;100827.59;;;4.74;100.00
36062;BME280;22123;52.412;20.970;2022-11-15T04:59:27;100826.47;;;4.76;100.00
36062;BME280;22123;52.412;20.970;2022-11-15T05:01:52;100824.66;;;4.77;100.00
36062;BME280;22123;52.412;20.970;2022-11-15T05:04:17;100820.16;;;4.77;100.00
36062;BME280;22123;52.412;20.970;2022-11-15T05:06:47;100817.50;;;4.77;100.00
36062;BME280;22123;52.412;20.970;2022-11-15T05:09:12;100814.84;;;4.77;100.00
36062;BME280;22123;52.412;20.970;2022-11-15T05:11:40;100816.53;;;4.78;100.00
36062;BME280;22123;52.412;20.970;2022-11-15T05:14:06;100813.00;;;4.78;100.00
36062;BME280;22123;52.412;20.970;2022-11-15T05:16:31;100806.81;;;4.77;100.00
36062;BME280;22123;52.412;20.970;2022-11-15T05:18:56;100804.28;;;4.76;100.00
36062;BME280;22123;52.412;20.970;2022-11-15T05:21:22;100810.47;;;4.76;100.00
36062;BME280;22123;52.412;20.970;2022-11-15T05:23:47;100817.50;;;4.77;100.00
36062;BME280;22123;52.412;20.970;2022-11-15T05:26:12;100814.00;;;4.77;100.00
36062;BME280;22123;52.412;20.970;2022-11-15T05:28:37;100812.41;;;4.74;100.00
36062;BME280;22123;52.412;20.970;2022-11-15T05:33:29;100800.31;;;4.70;100.00
36062;BME280;22123;52.412;20.970;2022-11-15T05:36:02;100800.44;;;4.68;100.00
36062;BME280;22123;52.412;20.970;2022-11-15T05:38:29;100805.06;;;4.66;100.00
36062;BME280;22123;52.412;20.970;2022-11-15T05:41:01;100807.72;;;4.66;100.00
36062;BME280;22123;52.412;20.970;2022-11-15T05:43:26;100804.19;;;4.66;100.00
36062;BME280;22123;52.412;20.970;2022-11-15T05:45:52;100806.16;;;4.64;100.00
36062;BME280;22123;52.412;20.970;2022-11-15T05:48:18;100796.56;;;4.61;100.00
36062;BME280;22123;52.412;20.970;2022-11-15T05:50:45;100801.91;;;4.61;100.00
36062;BME280;22123;52.412;20.970;2022-11-15T05:53:11;100786.16;;;4.58;100.00
36062;BME280;22123;52.412;20.970;2022-11-15T05:55:38;100792.47;;;4.57;100.00
36062;BME280;22123;52.412;20.970;2022-11-15T05:58:03;100784.47;;;4.57;100.00
36062;BME280;22123;52.412;20.970;2022-11-15T06:00:29;100796.00;;;4.58;100.00
36062;BME280;22123;52.412;20.970;2022-11-15T06:02:54;100780.81;;;4.58;100.00
36062;BME280;22123;52.412;20.970;2022-11-15T06:05:19;100798.41;;;4.61;100.00
36062;BME280;22123;52.412;20.970;2022-11-15T06:07:45;100796.00;;;4.58;100.00
36062;BME280;22123;52.412;20.970;2022-11-15T06:10:10;100799.50;;;4.58;100.00
36062;BME280;22123;52.412;20.970;2022-11-15T06:12:35;100803.13;;;4.57;100.00
36062;BME280;22123;52.412;20.970;2022-11-15T06:15:01;100809.41;;;4.56;100.00
36062;BME280;22123;52.412;20.970;2022-11-15T06:17:26;100799.75;;;4.55;100.00
36062;BME280;22123;52.412;20.970;2022-11-15T06:19:51;100799.88;;;4.53;100.00
36062;BME280;22123;52.412;20.970;2022-11-15T06:22:16;100806.28;;;4.51;100.00
36062;BME280;22123;52.412;20.970;2022-11-15T06:24:41;100803.88;;;4.48;100.00
36062;BME280;22123;52.412;20.970;2022-11-15T06:27:08;100790.31;;;4.40;100.00
36062;BME280;22123;52.412;20.970;2022-11-15T06:29:34;100798.81;;;4.45;100.00
36062;BME280;22123;52.412;20.970;2022-11-15T06:31:59;100790.81;;;4.45;100.00
36062;BME280;22123;52.412;20.970;2022-11-15T06:34:24;100794.31;;;4.45;100.00
36062;BME280;22123;52.412;20.970;2022-11-15T06:36:49;100794.31;;;4.45;100.00
36062;BME280;22123;52.412;20.970;2022-11-15T06:39:15;100798.69;;;4.46;100.00
36062;BME280;22123;52.412;20.970;2022-11-15T06:41:40;100812.72;;;4.48;100.00
36062;BME280;22123;52.412;20.970;2022-11-15T06:44:05;100809.22;;;4.48;100.00
36062;BME280;22123;52.412;20.970;2022-11-15T06:46:30;100815.63;;;4.45;100.00
36062;BME280;22123;52.412;20.970;2022-11-15T06:48:56;100819.25;;;4.44;100.00
36062;BME280;22123;52.412;20.970;2022-11-15T06:51:21;100816.84;;;4.41;100.00
36062;BME280;22123;52.412;20.970;2022-11-15T06:53:46;100817.81;;;4.40;100.00
36062;BME280;22123;52.412;20.970;2022-11-15T06:56:11;100818.81;;;4.39;100.00
36062;BME280;22123;52.412;20.970;2022-11-15T06:58:37;100818.81;;;4.39;100.00
36062;BME280;22123;52.412;20.970;2022-11-15T07:01:04;100818.69;;;4.41;100.00
36062;BME280;22123;52.412;20.970;2022-11-15T07:03:29;100821.34;;;4.41;100.00
36062;BME280;22123;52.412;20.970;2022-11-15T07:05:55;100827.50;;;4.41;100.00
36062;BME280;22123;52.412;20.970;2022-11-15T07:08:21;100820.25;;;4.43;100.00
36062;BME280;22123;52.412;20.970;2022-11-15T07:10:46;100814.94;;;4.43;100.00
36062;BME280;22123;52.412;20.970;2022-11-15T07:13:12;100809.59;;;4.43;100.00
36062;BME280;22123;52.412;20.970;2022-11-15T07:15:37;100814.94;;;4.43;100.00
36062;BME280;22123;52.412;20.970;2022-11-15T07:18:02;100813.22;;;4.42;100.00
36062;BME280;22123;52.412;20.970;2022-11-15T07:20:27;100811.38;;;4.43;100.00
36062;BME280;22123;52.412;20.970;2022-11-15T07:22:59;100814.06;;;4.43;100.00
36062;BME280;22123;52.412;20.970;2022-11-15T07:25:24;100806.94;;;4.43;100.00
36062;BME280;22123;52.412;20.970;2022-11-15T07:27:56;100813.22;;;4.42;100.00
36062;BME280;22123;52.412;20.970;2022-11-15T07:30:21;100807.88;;;4.42;100.00
36062;BME280;22123;52.412;20.970;2022-11-15T07:32:46;100807.88;;;4.42;100.00
36062;BME280;22123;52.412;20.970;2022-11-15T07:35:12;100811.38;;;4.43;100.00
36062;BME280;22123;52.412;20.970;2022-11-15T07:37:39;100806.94;;;4.43;100.00
36062;BME280;22123;52.412;20.970;2022-11-15T07:40:05;100812.25;;;4.43;100.00
36062;BME280;22123;52.412;20.970;2022-11-15T07:42:31;100803.41;;;4.43;100.00
36062;BME280;22123;52.412;20.970;2022-11-15T07:45:14;100804.25;;;4.43;100.00
36062;BME280;22123;52.412;20.970;2022-11-15T07:47:40;100807.88;;;4.42;100.00
36062;BME280;22123;52.412;20.970;2022-11-15T07:50:05;100803.53;;;4.41;100.00
36062;BME280;22123;52.412;20.970;2022-11-15T07:52:30;100798.31;;;4.40;100.00
36062;BME280;22123;52.412;20.970;2022-11-15T07:54:56;100799.41;;;4.37;100.00
36062;BME280;22123;52.412;20.970;2022-11-15T07:57:21;100796.88;;;4.35;100.00
36062;BME280;22123;52.412;20.970;2022-11-15T07:59:46;100787.28;;;4.33;100.00
36062;BME280;22123;52.412;20.970;2022-11-15T08:02:11;100792.88;;;4.30;100.00
36062;BME280;22123;52.412;20.970;2022-11-15T08:04:37;100784.16;;;4.28;100.00
36062;BME280;22123;52.412;20.970;2022-11-15T08:07:02;100782.34;;;4.28;100.00
36062;BME280;22123;52.412;20.970;2022-11-15T08:09:27;100782.34;;;4.28;100.00
36062;BME280;22123;52.412;20.970;2022-11-15T08:11:52;100777.88;;;4.29;100.00
36062;BME280;22123;52.412;20.970;2022-11-15T08:14:18;100775.91;;;4.31;100.00
36062;BME280;22123;52.412;20.970;2022-11-15T08:16:43;100767.09;;;4.30;100.00
36062;BME280;22123;52.412;20.970;2022-11-15T08:19:08;100774.22;;;4.30;100.00
36062;BME280;22123;52.412;20.970;2022-11-15T08:21:33;100766.97;;;4.32;100.00
36062;BME280;22123;52.412;20.970;2022-11-15T08:23:59;100766.84;;;4.33;100.00
36062;BME280;22123;52.412;20.970;2022-11-15T08:26:24;100765.00;;;4.34;100.00
36062;BME280;22123;52.412;20.970;2022-11-15T08:28:52;100764.28;;;4.32;100.00
36062;BME280;22123;52.412;20.970;2022-11-15T08:31:18;100766.22;;;4.30;100.00
36062;BME280;22123;52.412;20.970;2022-11-15T08:33:43;100757.88;;;4.34;100.00
36062;BME280;22123;52.412;20.970;2022-11-15T08:36:11;100753.97;;;4.39;100.00
36062;BME280;22123;52.412;20.970;2022-11-15T08:38:37;100759.78;;;4.44;100.00
36062;BME280;22123;52.412;20.970;2022-11-15T08:41:03;100762.06;;;4.48;100.00
36062;BME280;22123;52.412;20.970;2022-11-15T08:43:29;100753.22;;;4.48;100.00
36062;BME280;22123;52.412;20.970;2022-11-15T08:45:58;100766.69;;;4.46;100.00
36062;BME280;22123;52.412;20.970;2022-11-15T08:48:23;100762.19;;;4.47;100.00
36062;BME280;22123;52.412;20.970;2022-11-15T08:50:48;100757.94;;;4.44;100.00
36062;BME280;22123;52.412;20.970;2022-11-15T08:53:13;100754.56;;;4.42;100.00
36062;BME280;22123;52.412;20.970;2022-11-15T08:55:39;100751.16;;;4.40;100.00
36062;BME280;22123;52.412;20.970;2022-11-15T08:58:05;100752.88;;;4.41;100.00
36062;BME280;22123;52.412;20.970;2022-11-15T09:00:30;100755.41;;;4.43;100.00
36062;BME280;22123;52.412;20.970;2022-11-15T09:02:56;100757.25;;;4.42;100.00
36062;BME280;22123;52.412;20.970;2022-11-15T09:05:21;100748.16;;;4.45;100.00
36062;BME280;22123;52.412;20.970;2022-11-15T09:07:46;100742.56;;;4.48;100.00
36062;BME280;22123;52.412;20.970;2022-11-15T09:10:12;100734.31;;;4.51;100.00
36062;BME280;22123;52.412;20.970;2022-11-15T09:12:37;100732.09;;;4.56;100.00
36062;BME280;22123;52.412;20.970;2022-11-15T09:15:03;100727.50;;;4.58;100.00
36062;BME280;22123;52.412;20.970;2022-11-15T09:17:28;100734.66;;;4.58;100.00
36062;BME280;22123;52.412;20.970;2022-11-15T09:19:53;100721.56;;;4.55;100.00
36062;BME280;22123;52.412;20.970;2022-11-15T09:22:18;100725.22;;;4.53;100.00
36062;BME280;22123;52.412;20.970;2022-11-15T09:24:44;100718.88;;;4.55;100.00
36062;BME280;22123;52.412;20.970;2022-11-15T09:27:09;100715.88;;;4.59;100.00
36062;BME280;22123;52.412;20.970;2022-11-15T09:29:34;100715.72;;;4.61;100.00
36062;BME280;22123;52.412;20.970;2022-11-15T09:32:00;100713.06;;;4.61;100.00
36062;BME280;22123;52.412;20.970;2022-11-15T09:34:25;100716.97;;;4.57;100.00
36062;BME280;22123;52.412;20.970;2022-11-15T09:36:51;100719.50;;;4.58;100.00
36062;BME280;22123;52.412;20.970;2022-11-15T09:39:16;100717.09;;;4.55;100.00
36062;BME280;22123;52.412;20.970;2022-11-15T09:49:15;100700.97;;;4.57;100.00
36062;BME280;22123;52.412;20.970;2022-11-15T09:51:45;100704.34;;;4.59;100.00
36062;BME280;22123;52.412;20.970;2022-11-15T09:56:56;100701.66;;;4.59;100.00
36062;BME280;22123;52.412;20.970;2022-11-15T10:04:33;100695.38;;;4.60;100.00
36062;BME280;22123;52.412;20.970;2022-11-15T10:07:03;100690.88;;;4.60;100.00
36062;BME280;22123;52.412;20.970;2022-11-15T10:09:33;100683.75;;;4.61;100.00
36062;BME280;22123;52.412;20.970;2022-11-15T10:12:01;100690.03;;;4.60;100.00
36062;BME280;22123;52.412;20.970;2022-11-15T10:14:27;100695.63;;;4.57;100.00
36062;BME280;22123;52.412;20.970;2022-11-15T10:22:00;100680.06;;;4.62;100.00
36062;BME280;22123;52.412;20.970;2022-11-15T10:24:28;100676.31;;;4.64;100.00
36062;BME280;22123;52.412;20.970;2022-11-15T10:26:58;100680.41;;;4.68;100.00
36062;BME280;22123;52.412;20.970;2022-11-15T10:29:24;100676.91;;;4.68;100.00
36062;BME280;22123;52.412;20.970;2022-11-15T10:31:49;100681.25;;;4.69;100.00
36062;BME280;22123;52.412;20.970;2022-11-15T10:34:19;100667.78;;;4.70;100.00
36062;BME280;22123;52.412;20.970;2022-11-15T10:36:54;100672.75;;;4.75;100.00
36062;BME280;22123;52.412;20.970;2022-11-15T10:39:21;100666.28;;;4.78;100.00
36062;BME280;22123;52.412;20.970;2022-11-15T10:41:46;100662.66;;;4.79;100.00
36062;BME280;22123;52.412;20.970;2022-11-15T10:49:29;100659.28;;;4.77;100.00
36062;BME280;22123;52.412;20.970;2022-11-15T10:54:24;100650.16;;;4.79;100.00
36062;BME280;22123;52.412;20.970;2022-11-15T10:56:51;100650.28;;;4.78;100.00
36062;BME280;22123;52.412;20.970;2022-11-15T10:59:19;100650.16;;;4.79;100.00
36062;BME280;22123;52.412;20.970;2022-11-15T11:01:48;100655.50;;;4.79;100.00
36062;BME280;22123;52.412;20.970;2022-11-15T11:04:13;100653.81;;;4.78;100.00
36062;BME280;22123;52.412;20.970;2022-11-15T11:06:49;100645.09;;;4.76;100.00
36062;BME280;22123;52.412;20.970;2022-11-15T11:11:46;100645.81;;;4.78;100.00
36062;BME280;22123;52.412;20.970;2022-11-15T11:14:19;100640.34;;;4.80;100.00
36062;BME280;22123;52.412;20.970;2022-11-15T11:16:50;100636.47;;;4.84;100.00
36062;BME280;22123;52.412;20.970;2022-11-15T11:19:27;100639.00;;;4.85;100.00
36062;BME280;22123;52.412;20.970;2022-11-15T11:22:01;100631.25;;;4.82;100.00
36062;BME280;22123;52.412;20.970;2022-11-15T11:24:54;100629.56;;;4.81;100.00
36062;BME280;22123;52.412;20.970;2022-11-15T11:40:40;100613.09;;;4.76;100.00
36062;BME280;22123;52.412;20.970;2022-11-15T11:50:27;100608.97;;;4.93;100.00
36062;BME280;22123;52.412;20.970;2022-11-15T11:55:20;100595.78;;;4.92;100.00
36062;BME280;22123;52.412;20.970;2022-11-15T12:00:26;100594.66;;;4.94;100.00
36062;BME280;22123;52.412;20.970;2022-11-15T12:05:44;100596.94;;;4.99;100.00
36062;BME280;22123;52.412;20.970;2022-11-15T12:08:20;100594.13;;;5.00;100.00
36062;BME280;22123;52.412;20.970;2022-11-15T12:10:48;100592.28;;;5.01;100.00
36062;BME280;22123;52.412;20.970;2022-11-15T12:13:19;100578.94;;;5.01;100.00
36062;BME280;22123;52.412;20.970;2022-11-15T12:18:30;100578.13;;;5.00;100.00
36062;BME280;22123;52.412;20.970;2022-11-15T12:20:57;100579.69;;;5.03;100.00
36062;BME280;22123;52.412;20.970;2022-11-15T12:23:28;100572.38;;;5.05;100.00
36062;BME280;22123;52.412;20.970;2022-11-15T12:25:56;100566.75;;;5.08;100.00
36062;BME280;22123;52.412;20.970;2022-11-15T12:28:40;100562.44;;;5.07;100.00
36062;BME280;22123;52.412;20.970;2022-11-15T12:31:11;100567.22;;;5.13;100.00
36062;BME280;22123;52.412;20.970;2022-11-15T12:33:43;100567.91;;;5.15;100.00
36062;BME280;22123;52.412;20.970;2022-11-15T12:36:29;100562.44;;;5.17;100.00
36062;BME280;22123;52.412;20.970;2022-11-15T12:41:21;100557.09;;;5.17;100.00
36062;BME280;22123;52.412;20.970;2022-11-15T12:43:47;100557.97;;;5.17;100.00
36062;BME280;22123;52.412;20.970;2022-11-15T12:46:19;100557.69;;;5.20;100.00
36062;BME280;22123;52.412;20.970;2022-11-15T12:48:47;100556.59;;;5.23;100.00
36062;BME280;22123;52.412;20.970;2022-11-15T12:51:13;100554.75;;;5.23;100.00
36062;BME280;22123;52.412;20.970;2022-11-15T12:53:38;100558.41;;;5.22;100.00
36062;BME280;22123;52.412;20.970;2022-11-15T12:58:42;100550.53;;;5.21;100.00
36062;BME280;22123;52.412;20.970;2022-11-15T13:04:13;100546.72;;;5.14;100.00
36062;BME280;22123;52.412;20.970;2022-11-15T13:06:40;100551.22;;;5.13;100.00
36062;BME280;22123;52.412;20.970;2022-11-15T13:09:49;100550.25;;;5.14;100.00
36062;BME280;22123;52.412;20.970;2022-11-15T13:11:51;100550.94;;;5.16;100.00
36062;BME280;22123;52.412;20.970;2022-11-15T13:17:01;100544.63;;;5.17;100.00
36062;BME280;22123;52.412;20.970;2022-11-15T13:19:26;100548.97;;;5.18;100.00
36062;BME280;22123;52.412;20.970;2022-11-15T13:21:51;100544.75;;;5.16;100.00
36062;BME280;22123;52.412;20.970;2022-11-15T13:24:37;100536.75;;;5.16;100.00
36062;BME280;22123;52.412;20.970;2022-11-15T13:27:09;100537.59;;;5.16;100.00
36062;BME280;22123;52.412;20.970;2022-11-15T13:29:35;100528.63;;;5.17;100.00
36062;BME280;22123;52.412;20.970;2022-11-15T13:32:01;100532.13;;;5.18;100.00
36062;BME280;22123;52.412;20.970;2022-11-15T13:36:51;100529.03;;;5.22;100.00
36062;BME280;22123;52.412;20.970;2022-11-15T13:39:27;100530.72;;;5.23;100.00
36062;BME280;22123;52.412;20.970;2022-11-15T13:41:53;100527.94;;;5.25;100.00
36062;BME280;22123;52.412;20.970;2022-11-15T13:44:25;100526.09;;;5.26;100.00
36062;BME280;22123;52.412;20.970;2022-11-15T13:49:35;100517.38;;;5.23;100.00
36062;BME280;22123;52.412;20.970;2022-11-15T13:52:02;100524.41;;;5.25;100.00
36062;BME280;22123;52.412;20.970;2022-11-15T13:54:30;100521.75;;;5.25;100.00
36062;BME280;22123;52.412;20.970;2022-11-15T13:57:01;100509.53;;;5.22;100.00
36062;BME280;22123;52.412;20.970;2022-11-15T14:01:53;100508.69;;;5.21;100.00
36062;BME280;22123;52.412;20.970;2022-11-15T14:04:20;100516.69;;;5.21;100.00
36062;BME280;22123;52.412;20.970;2022-11-15T14:06:47;100523.00;;;5.20;100.00
36062;BME280;22123;52.412;20.970;2022-11-15T14:11:52;100501.94;;;5.17;100.00
36062;BME280;22123;52.412;20.970;2022-11-15T14:14:17;100497.56;;;5.16;100.00
36062;BME280;22123;52.412;20.970;2022-11-15T14:16:45;100501.78;;;5.19;100.00
36062;BME280;22123;52.412;20.970;2022-11-15T14:19:56;100491.09;;;5.19;100.00
36062;BME280;22123;52.412;20.970;2022-11-15T14:22:13;100488.44;;;5.19;100.00
36062;BME280;22123;52.412;20.970;2022-11-15T14:24:40;100483.38;;;5.16;100.00
36062;BME280;22123;52.412;20.970;2022-11-15T14:29:46;100491.53;;;5.14;100.00
36062;BME280;22123;52.412;20.970;2022-11-15T14:32:12;100488.72;;;5.16;100.00